Time;durP1;ratioP1;P1;durP2;ratioP2;P2;SDS_P1;SDS_P2;PMS_P1;PMS_P2;Temp;Humidity;BMP_temperature;BMP_pressure;BME280_temperature;BME280_humidity;BME280_pressure;Samples;Min_cycle;Max_cycle;Signal;HPM_P1;HPM_P2
2024/03/01 00:00:55;;;;;;;44.03;24.50;;;3.40;99.90;;;;;;4912677;29;20211;-87
2024/03/01 00:03:22;;;;;;;46.43;24.93;;;3.40;99.90;;;;;;4911325;29;20214;-88
2024/03/01 00:05:50;;;;;;;49.60;23.90;;;3.40;99.90;;;;;;4910912;29;20682;-88
2024/03/01 00:08:19;;;;;;;40.93;24.30;;;3.50;99.90;;;;;;4915006;29;20713;-89
2024/03/01 00:10:52;;;;;;;43.83;23.67;;;3.50;99.90;;;;;;4908460;29;20202;-87
2024/03/01 00:13:20;;;;;;;48.53;25.37;;;3.50;99.90;;;;;;4911432;29;20199;-88
2024/03/01 00:15:49;;;;;;;40.10;24.87;;;3.60;99.90;;;;;;4910016;29;20211;-87
2024/03/01 00:18:18;;;;;;;46.33;24.60;;;3.50;99.90;;;;;;4915833;29;20206;-87
2024/03/01 00:20:45;;;;;;;45.50;25.10;;;3.50;99.90;;;;;;4910426;29;20213;-87
2024/03/01 00:23:13;;;;;;;41.60;23.37;;;3.50;99.90;;;;;;4914206;29;20203;-87
2024/03/01 00:25:40;;;;;;;44.20;24.13;;;3.40;99.90;;;;;;4909458;29;20318;-87
2024/03/01 00:28:07;;;;;;;40.23;24.00;;;3.50;99.90;;;;;;4913679;29;20195;-88
2024/03/01 00:30:37;;;;;;;39.20;23.43;;;3.60;99.90;;;;;;4914056;29;20225;-87
2024/03/01 00:33:07;;;;;;;42.53;22.93;;;3.60;99.90;;;;;;4913034;29;21023;-87
2024/03/01 00:35:35;;;;;;;44.93;23.83;;;3.60;99.90;;;;;;4905665;29;20228;-87
2024/03/01 00:38:03;;;;;;;39.60;21.87;;;3.60;99.90;;;;;;4910497;29;20305;-87
2024/03/01 00:40:30;;;;;;;44.63;23.67;;;3.50;99.90;;;;;;4910746;29;20301;-87
2024/03/01 00:42:57;;;;;;;41.73;23.73;;;3.50;99.90;;;;;;4909489;29;20600;-87
2024/03/01 00:45:24;;;;;;;49.97;24.57;;;3.40;99.90;;;;;;4913750;29;20577;-88
2024/03/01 00:47:51;;;;;;;45.90;25.90;;;3.50;99.90;;;;;;4909211;29;20198;-87
2024/03/01 00:50:21;;;;;;;45.90;24.97;;;3.60;99.90;;;;;;4912279;29;20205;-87
2024/03/01 00:52:50;;;;;;;44.37;24.83;;;3.60;99.90;;;;;;4909103;29;20202;-87
2024/03/01 00:55:17;;;;;;;38.73;23.33;;;3.60;99.90;;;;;;4912866;29;20882;-89
2024/03/01 00:57:46;;;;;;;43.10;24.73;;;3.70;99.90;;;;;;4908744;29;20242;-87
2024/03/01 01:00:14;;;;;;;43.43;24.50;;;3.80;99.90;;;;;;4913218;29;20202;-88
2024/03/01 01:02:41;;;;;;;45.90;25.03;;;3.80;99.90;;;;;;4897005;29;20202;-91
2024/03/01 01:05:09;;;;;;;48.83;25.57;;;3.90;99.90;;;;;;4909046;29;20231;-89
2024/03/01 01:07:37;;;;;;;53.20;27.20;;;3.90;99.90;;;;;;4913559;29;21007;-87
2024/03/01 01:10:07;;;;;;;49.37;26.00;;;3.80;99.90;;;;;;4911156;29;20207;-87
2024/03/01 01:12:34;;;;;;;51.53;25.20;;;3.90;99.90;;;;;;4912710;29;20293;-87
2024/03/01 01:15:01;;;;;;;49.67;26.17;;;4.00;99.90;;;;;;4911783;29;20329;-88
2024/03/01 01:17:29;;;;;;;39.53;23.63;;;4.10;99.90;;;;;;4907239;29;20607;-86
2024/03/01 01:19:59;;;;;;;41.30;23.73;;;3.90;99.90;;;;;;4908726;29;20207;-87
2024/03/01 01:22:34;;;;;;;37.47;22.43;;;4.00;99.90;;;;;;4911405;29;20319;-86
2024/03/01 01:25:01;;;;;;;43.20;21.87;;;4.10;99.90;;;;;;4913730;29;20693;-87
2024/03/01 01:27:30;;;;;;;46.93;23.63;;;4.20;99.90;;;;;;4907190;29;20218;-87
2024/03/01 01:30:00;;;;;;;39.60;23.33;;;4.00;99.90;;;;;;4908510;29;20203;-87
2024/03/01 01:32:29;;;;;;;40.40;22.80;;;3.80;99.90;;;;;;4908360;29;20241;-87
2024/03/01 01:35:02;;;;;;;43.87;22.67;;;3.70;99.90;;;;;;4910042;29;20207;-88
2024/03/01 01:37:30;;;;;;;40.30;22.33;;;3.80;99.90;;;;;;4913797;29;20206;-88
2024/03/01 01:40:11;;;;;;;38.53;21.47;;;3.90;99.90;;;;;;4914734;29;20296;-88
2024/03/01 01:42:46;;;;;;;37.90;20.83;;;3.90;99.90;;;;;;4917304;29;20713;-87
2024/03/01 01:45:15;;;;;;;41.90;22.20;;;3.80;99.90;;;;;;4911413;29;20226;-89
2024/03/01 01:47:53;;;;;;;40.33;21.77;;;3.80;99.90;;;;;;4902288;29;20206;-91
2024/03/01 01:50:22;;;;;;;37.70;21.77;;;3.60;99.90;;;;;;4914114;29;20215;-88
2024/03/01 01:52:50;;;;;;;38.80;22.00;;;3.50;99.90;;;;;;4915006;29;20336;-87
2024/03/01 01:55:19;;;;;;;39.33;21.80;;;3.50;99.90;;;;;;4914366;29;20214;-89
2024/03/01 01:57:49;;;;;;;42.20;22.33;;;3.60;99.90;;;;;;4910166;29;20298;-87
2024/03/01 02:00:16;;;;;;;40.50;21.97;;;3.60;99.90;;;;;;4917408;29;20194;-86
2024/03/01 02:02:45;;;;;;;41.83;22.87;;;3.50;99.90;;;;;;4896813;29;20759;-88
2024/03/01 02:05:12;;;;;;;44.83;22.63;;;3.50;99.90;;;;;;4916387;29;20286;-87
2024/03/01 02:07:39;;;;;;;38.43;21.77;;;3.60;99.90;;;;;;4915647;29;20214;-87
2024/03/01 02:10:16;;;;;;;36.87;21.97;;;3.50;99.90;;;;;;4914237;29;20662;-87
2024/03/01 02:12:54;;;;;;;39.00;21.80;;;3.50;99.90;;;;;;4910757;29;20218;-88
2024/03/01 02:15:21;;;;;;;39.73;22.47;;;3.40;99.90;;;;;;4912303;29;20666;-87
2024/03/01 02:17:48;;;;;;;43.73;23.37;;;3.20;99.90;;;;;;4914359;29;20207;-86
2024/03/01 02:20:16;;;;;;;38.73;23.13;;;3.10;99.90;;;;;;4913525;29;20684;-87
2024/03/01 02:22:49;;;;;;;40.07;21.87;;;3.00;99.90;;;;;;4916680;29;20199;-92
2024/03/01 02:25:17;;;;;;;36.30;22.23;;;3.10;99.90;;;;;;4911784;29;20697;-89
2024/03/01 02:27:45;;;;;;;40.43;22.83;;;3.20;99.90;;;;;;4912811;29;20218;-88
2024/03/01 02:30:13;;;;;;;38.30;22.27;;;3.20;99.90;;;;;;4914977;29;20205;-89
2024/03/01 02:32:39;;;;;;;44.17;23.13;;;3.20;99.90;;;;;;4903033;29;20266;-88
2024/03/01 02:35:07;;;;;;;36.67;22.63;;;3.20;99.90;;;;;;4917331;29;20214;-87
2024/03/01 02:37:34;;;;;;;40.97;22.70;;;3.10;99.90;;;;;;4917456;29;20203;-85
2024/03/01 02:40:01;;;;;;;38.47;21.53;;;3.00;99.90;;;;;;4915961;29;20250;-88
2024/03/01 02:42:30;;;;;;;39.80;22.87;;;2.90;99.90;;;;;;4916044;29;20212;-88
2024/03/01 02:44:56;;;;;;;41.97;23.47;;;3.00;99.90;;;;;;4914065;29;20231;-85
2024/03/01 02:47:23;;;;;;;51.90;24.53;;;2.90;99.90;;;;;;4910775;29;20293;-85
2024/03/01 02:49:50;;;;;;;43.93;23.63;;;2.90;99.90;;;;;;4914975;29;20238;-87
2024/03/01 02:52:18;;;;;;;45.23;24.57;;;2.80;99.90;;;;;;4912908;29;20206;-88
2024/03/01 02:54:44;;;;;;;43.83;24.13;;;2.90;99.90;;;;;;4901215;29;20211;-88
2024/03/01 02:57:11;;;;;;;40.73;23.03;;;2.90;99.90;;;;;;4913401;29;20223;-87
2024/03/01 02:59:40;;;;;;;41.70;23.37;;;3.00;99.90;;;;;;4911950;29;20734;-88
2024/03/01 03:02:07;;;;;;;35.83;22.20;;;3.00;99.90;;;;;;4915573;29;20211;-86
2024/03/01 03:04:34;;;;;;;39.40;22.67;;;3.20;99.90;;;;;;4899917;29;20206;-87
2024/03/01 03:07:01;;;;;;;37.43;22.83;;;3.40;99.90;;;;;;4916435;29;20289;-87
2024/03/01 03:09:28;;;;;;;36.80;22.00;;;3.40;99.90;;;;;;4918218;29;20294;-87
2024/03/01 03:11:55;;;;;;;35.63;21.37;;;3.50;99.90;;;;;;4912938;29;20202;-87
2024/03/01 03:14:22;;;;;;;41.60;23.27;;;3.60;99.90;;;;;;4913589;29;20206;-87
2024/03/01 03:16:51;;;;;;;34.10;21.10;;;3.70;99.90;;;;;;4909174;29;20207;-87
2024/03/01 03:19:18;;;;;;;36.47;22.30;;;3.60;99.90;;;;;;4916114;29;20210;-87
2024/03/01 03:21:45;;;;;;;42.07;23.60;;;3.50;99.90;;;;;;4914893;29;20234;-87
2024/03/01 03:24:13;;;;;;;36.47;22.93;;;3.50;99.90;;;;;;4912825;29;20871;-89
2024/03/01 03:26:40;;;;;;;39.23;23.17;;;3.40;99.90;;;;;;4897110;29;20254;-88
2024/03/01 03:29:07;;;;;;;38.57;24.17;;;3.40;99.90;;;;;;4913621;29;20203;-88
2024/03/01 03:31:33;;;;;;;38.77;24.23;;;3.30;99.90;;;;;;4913541;29;20211;-88
2024/03/01 03:34:04;;;;;;;39.47;23.67;;;3.30;99.90;;;;;;4900150;29;20218;-87
2024/03/01 03:36:31;;;;;;;38.67;23.13;;;3.40;99.90;;;;;;4914668;29;20222;-87
2024/03/01 03:38:58;;;;;;;41.50;23.90;;;3.50;99.90;;;;;;4893479;29;20199;-87
2024/03/01 03:41:25;;;;;;;39.03;23.00;;;3.70;99.90;;;;;;4904763;29;20290;-87
2024/03/01 03:43:52;;;;;;;36.90;22.87;;;3.80;99.90;;;;;;4908453;29;20199;-87
2024/03/01 03:46:19;;;;;;;34.43;22.90;;;3.90;99.90;;;;;;4895431;29;20237;-87
2024/03/01 03:48:46;;;;;;;42.03;23.47;;;4.00;99.90;;;;;;4911775;29;20207;-87
2024/03/01 03:51:23;;;;;;;36.83;23.20;;;4.00;99.90;;;;;;4916628;29;20559;-87
2024/03/01 03:53:50;;;;;;;41.40;23.57;;;3.90;99.90;;;;;;4896066;29;20270;-87
2024/03/01 03:56:17;;;;;;;40.73;24.00;;;3.80;99.90;;;;;;4913884;29;20222;-87
2024/03/01 03:58:44;;;;;;;42.23;25.07;;;3.80;99.90;;;;;;4914775;29;20289;-88
2024/03/01 04:01:11;;;;;;;49.33;27.03;;;3.80;99.90;;;;;;4908039;29;20630;-87
2024/03/01 04:03:38;;;;;;;52.00;29.20;;;3.80;99.90;;;;;;4913298;29;20204;-87
2024/03/01 04:06:07;;;;;;;55.60;30.30;;;3.90;99.90;;;;;;4915031;29;20230;-87
2024/03/01 04:08:37;;;;;;;57.80;30.00;;;4.00;99.90;;;;;;4899494;29;20238;-87
2024/03/01 04:11:06;;;;;;;74.00;30.97;;;4.00;99.90;;;;;;4913513;29;20207;-87
2024/03/01 04:13:33;;;;;;;57.93;29.53;;;4.00;99.90;;;;;;4910026;29;20199;-89
2024/03/01 04:16:00;;;;;;;45.37;27.57;;;3.90;99.90;;;;;;4914311;29;20229;-86
2024/03/01 04:18:27;;;;;;;50.43;28.63;;;4.00;99.90;;;;;;4912954;29;20211;-87
2024/03/01 04:20:55;;;;;;;48.13;28.20;;;4.10;99.90;;;;;;4914302;29;20296;-86
2024/03/01 04:23:22;;;;;;;47.40;27.90;;;4.10;99.90;;;;;;4920212;29;20207;-87
2024/03/01 04:25:52;;;;;;;46.40;27.47;;;4.10;99.90;;;;;;4913880;29;20225;-86
2024/03/01 04:28:19;;;;;;;44.67;28.60;;;4.30;99.90;;;;;;4908420;29;20206;-87
2024/03/01 04:30:46;;;;;;;45.90;28.10;;;4.20;99.90;;;;;;4914482;29;20206;-87
2024/03/01 04:33:13;;;;;;;45.17;28.63;;;4.20;99.90;;;;;;4915292;29;20202;-87
2024/03/01 04:35:40;;;;;;;48.13;28.93;;;4.10;99.90;;;;;;4912853;29;20214;-88
2024/03/01 04:38:07;;;;;;;51.17;29.57;;;4.00;99.90;;;;;;4903048;29;20261;-90
2024/03/01 04:40:34;;;;;;;51.30;29.17;;;4.10;99.90;;;;;;4917216;29;20205;-87
2024/03/01 04:43:03;;;;;;;48.17;29.00;;;4.00;99.90;;;;;;4917784;29;21456;-89
2024/03/01 04:45:30;;;;;;;54.13;29.03;;;4.10;99.90;;;;;;4915759;29;20232;-87
2024/03/01 04:47:57;;;;;;;52.00;31.20;;;4.00;99.90;;;;;;4909542;29;20207;-88
2024/03/01 04:50:23;;;;;;;51.77;30.67;;;3.90;99.90;;;;;;4914038;29;20199;-88
2024/03/01 04:52:51;;;;;;;53.57;30.07;;;4.10;99.90;;;;;;4914510;29;20205;-92
2024/03/01 04:55:18;;;;;;;46.50;28.87;;;4.20;99.90;;;;;;4915842;29;20297;-87
2024/03/01 04:57:45;;;;;;;47.83;29.07;;;4.10;99.90;;;;;;4910076;29;20260;-86
2024/03/01 05:00:15;;;;;;;49.23;29.07;;;4.20;99.90;;;;;;4907122;29;20287;-87
2024/03/01 05:02:43;;;;;;;49.93;28.57;;;4.20;99.90;;;;;;4914952;29;20203;-87
2024/03/01 05:05:10;;;;;;;49.13;29.20;;;4.30;99.90;;;;;;4914680;29;20195;-86
2024/03/01 05:07:37;;;;;;;46.03;28.37;;;4.30;99.90;;;;;;4910826;29;20221;-86
2024/03/01 05:10:08;;;;;;;47.23;29.37;;;4.30;99.90;;;;;;4912698;29;20217;-86
2024/03/01 05:12:36;;;;;;;54.70;30.70;;;4.30;99.90;;;;;;4918107;29;20250;-86
2024/03/01 05:15:04;;;;;;;51.37;30.97;;;4.30;99.90;;;;;;4916233;29;20198;-86
2024/03/01 05:17:32;;;;;;;58.50;29.70;;;4.30;99.90;;;;;;4918147;29;20657;-87
2024/03/01 05:19:59;;;;;;;61.43;30.93;;;4.20;99.90;;;;;;4916152;29;20202;-86
2024/03/01 05:22:26;;;;;;;47.20;27.80;;;4.10;99.90;;;;;;4910338;29;20210;-86
2024/03/01 05:24:53;;;;;;;56.23;30.10;;;4.10;99.90;;;;;;4916370;29;20956;-86
2024/03/01 05:27:19;;;;;;;46.60;27.77;;;4.10;99.90;;;;;;4914909;29;20222;-88
2024/03/01 05:29:46;;;;;;;50.10;28.93;;;4.10;99.90;;;;;;4916638;29;20202;-89
2024/03/01 05:32:13;;;;;;;42.50;27.40;;;4.20;99.90;;;;;;4917444;29;20199;-87
2024/03/01 05:34:42;;;;;;;45.57;29.27;;;4.20;99.90;;;;;;4918382;29;21324;-88
2024/03/01 05:37:09;;;;;;;46.00;28.03;;;4.10;99.90;;;;;;4916603;29;20687;-88
2024/03/01 05:39:36;;;;;;;44.73;27.30;;;4.10;99.90;;;;;;4916173;29;20325;-89
2024/03/01 05:42:02;;;;;;;37.90;26.03;;;4.20;99.90;;;;;;4902811;29;20207;-86
2024/03/01 05:44:30;;;;;;;44.33;27.20;;;4.20;99.90;;;;;;4918719;29;20207;-87
2024/03/01 05:46:57;;;;;;;43.60;27.37;;;4.20;99.90;;;;;;4910359;29;20603;-86
2024/03/01 05:49:24;;;;;;;42.97;25.90;;;4.20;99.90;;;;;;4917014;29;20203;-88
2024/03/01 05:51:52;;;;;;;39.93;25.47;;;4.20;99.90;;;;;;4913816;29;20215;-88
2024/03/01 05:54:20;;;;;;;39.67;25.30;;;4.20;99.90;;;;;;4920015;29;20254;-88
2024/03/01 05:56:47;;;;;;;39.10;24.33;;;4.30;99.90;;;;;;4918974;29;20552;-88
2024/03/01 05:59:14;;;;;;;42.40;25.03;;;4.20;99.90;;;;;;4915920;29;20202;-86
2024/03/01 06:01:41;;;;;;;40.43;23.80;;;4.30;99.90;;;;;;4918031;29;20221;-86
2024/03/01 06:04:10;;;;;;;39.77;25.00;;;4.20;99.90;;;;;;4922304;29;20636;-89
2024/03/01 06:06:37;;;;;;;37.23;25.03;;;4.20;99.90;;;;;;4903597;29;20258;-88
2024/03/01 06:09:06;;;;;;;41.30;24.00;;;4.20;99.90;;;;;;4921001;29;20206;-89
2024/03/01 06:11:33;;;;;;;40.50;24.60;;;4.30;99.90;;;;;;4920377;29;20211;-88
2024/03/01 06:14:05;;;;;;;46.63;25.13;;;4.30;99.90;;;;;;4920390;29;20186;-88
2024/03/01 06:16:33;;;;;;;43.70;24.97;;;4.40;99.90;;;;;;4920143;29;20209;-88
2024/03/01 06:19:00;;;;;;;46.00;25.50;;;4.40;99.90;;;;;;4904356;29;20209;-88
2024/03/01 06:21:27;;;;;;;43.40;26.23;;;4.40;99.90;;;;;;4885041;29;20207;-89
2024/03/01 06:23:54;;;;;;;42.00;24.43;;;4.40;99.90;;;;;;4909858;29;20202;-89
2024/03/01 06:26:22;;;;;;;44.00;25.90;;;4.50;99.90;;;;;;4928594;29;20211;-89
2024/03/01 06:28:49;;;;;;;39.83;24.87;;;4.50;99.90;;;;;;4920161;29;20203;-88
2024/03/01 06:31:16;;;;;;;38.40;24.27;;;4.60;99.90;;;;;;4920102;29;20202;-88
2024/03/01 06:33:43;;;;;;;40.37;24.47;;;4.50;99.90;;;;;;4919975;29;20214;-89
2024/03/01 06:36:10;;;;;;;37.20;24.40;;;4.50;99.90;;;;;;4919572;29;20210;-88
2024/03/01 06:38:38;;;;;;;41.00;25.10;;;4.60;99.90;;;;;;4909444;29;20212;-88
2024/03/01 06:41:05;;;;;;;43.43;25.10;;;4.60;99.90;;;;;;4903350;29;20258;-88
2024/03/01 06:43:33;;;;;;;44.47;24.93;;;4.60;99.90;;;;;;4919933;29;20224;-89
2024/03/01 06:46:03;;;;;;;42.03;24.43;;;4.60;99.90;;;;;;4919793;29;20230;-88
2024/03/01 06:48:30;;;;;;;40.63;24.17;;;4.60;99.90;;;;;;4903905;29;20207;-89
2024/03/01 06:50:57;;;;;;;35.30;23.67;;;4.70;99.90;;;;;;4901143;29;20230;-88
2024/03/01 06:53:23;;;;;;;37.87;24.33;;;4.70;99.90;;;;;;4922959;29;20661;-89
2024/03/01 06:55:50;;;;;;;38.73;23.67;;;4.80;99.90;;;;;;4919985;29;20207;-89
2024/03/01 06:58:17;;;;;;;40.23;23.53;;;4.90;99.90;;;;;;4907668;29;20677;-89
2024/03/01 07:00:47;;;;;;;38.03;23.10;;;4.90;99.90;;;;;;4878459;29;20210;-89
2024/03/01 07:03:14;;;;;;;38.73;22.40;;;4.90;99.90;;;;;;4901021;29;20291;-89
2024/03/01 07:05:41;;;;;;;39.33;23.67;;;5.00;99.90;;;;;;4900544;29;20218;-89
2024/03/01 07:08:09;;;;;;;38.37;23.13;;;5.10;99.90;;;;;;4899434;29;20207;-89
2024/03/01 07:10:36;;;;;;;39.20;23.27;;;5.10;99.90;;;;;;4886594;29;20291;-88
2024/03/01 07:13:03;;;;;;;38.47;23.23;;;5.00;99.90;;;;;;4918334;29;20209;-89
2024/03/01 07:15:29;;;;;;;36.50;22.90;;;5.00;99.90;;;;;;4898020;29;20651;-89
2024/03/01 07:17:58;;;;;;;40.93;24.20;;;5.00;99.90;;;;;;4922282;29;20210;-89
2024/03/01 07:20:25;;;;;;;40.50;24.20;;;5.00;99.90;;;;;;4913962;29;20207;-89
2024/03/01 07:22:52;;;;;;;40.83;23.53;;;5.10;99.90;;;;;;4913142;29;20210;-89
2024/03/01 07:25:20;;;;;;;41.67;24.83;;;5.10;99.90;;;;;;4875254;29;20278;-89
2024/03/01 07:27:47;;;;;;;38.13;23.60;;;5.20;99.90;;;;;;4921335;29;20226;-89
2024/03/01 07:30:15;;;;;;;39.88;24.67;;;5.30;99.90;;;;;;4918830;29;20206;-89
2024/03/01 07:32:42;;;;;;;43.35;24.58;;;5.30;99.90;;;;;;4897682;29;20206;-89
2024/03/01 07:35:11;;;;;;;43.45;24.55;;;5.30;99.90;;;;;;4901405;29;20301;-89
2024/03/01 07:37:37;;;;;;;42.83;25.70;;;5.30;99.90;;;;;;4918702;29;20206;-89
2024/03/01 07:40:05;;;;;;;40.23;24.30;;;5.30;99.90;;;;;;4920900;29;20207;-89
2024/03/01 07:42:32;;;;;;;45.43;24.77;;;5.40;99.90;;;;;;4921396;29;20217;-89
2024/03/01 07:44:59;;;;;;;43.17;24.08;;;5.40;99.90;;;;;;4938244;29;20197;-88
2024/03/01 12:06:54;;;;;;;31.60;19.10;;;11.10;82.20;;;;;;5170826;23;20238;-91
2024/03/01 12:19:48;;;;;;;23.67;14.75;;;11.00;76.80;;;;;;4899909;29;20223;-91
2024/03/01 12:25:30;;;;;;;18.88;12.95;;;10.80;77.30;;;;;;4891360;29;20734;-91
2024/03/01 12:28:13;;;;;;;21.40;13.43;;;10.80;77.90;;;;;;4916225;29;20222;-91
2024/03/01 12:30:49;;;;;;;22.60;13.75;;;10.70;79.40;;;;;;4916182;29;20556;-91
2024/03/01 12:33:38;;;;;;;24.38;12.75;;;10.70;78.50;;;;;;4923308;29;20194;-92
2024/03/01 12:46:35;;;;;;;15.77;10.32;;;10.40;78.80;;;;;;4887105;29;20283;-93
2024/03/01 12:49:18;;;;;;;17.08;11.38;;;10.60;77.90;;;;;;4878419;29;20202;-91
2024/03/01 12:52:05;;;;;;;17.23;11.32;;;10.60;76.40;;;;;;4890837;29;20229;-92
2024/03/01 12:54:42;;;;;;;19.83;10.85;;;10.70;77.40;;;;;;4905701;29;20202;-92
2024/03/01 12:57:21;;;;;;;15.98;10.70;;;10.60;77.30;;;;;;4899141;29;20270;-90
2024/03/01 13:00:00;;;;;;;15.80;10.45;;;10.60;77.60;;;;;;4898738;29;20239;-89
2024/03/01 13:03:02;;;;;;;15.77;10.93;;;10.60;77.90;;;;;;4895180;29;20199;-89
2024/03/01 13:05:36;;;;;;;15.25;10.93;;;10.40;78.20;;;;;;4898556;29;20199;-89
2024/03/01 13:08:10;;;;;;;19.25;10.90;;;10.30;79.50;;;;;;4896944;29;20246;-89
2024/03/01 13:10:41;;;;;;;16.67;10.68;;;10.20;81.60;;;;;;4897861;29;20597;-88
2024/03/01 13:13:16;;;;;;;17.75;11.50;;;10.20;82.00;;;;;;4882106;29;20218;-89
2024/03/01 13:15:54;;;;;;;15.65;10.52;;;10.20;82.80;;;;;;4892095;29;20226;-88
2024/03/01 13:18:30;;;;;;;15.40;10.55;;;10.20;82.60;;;;;;4893562;29;20211;-89
2024/03/01 13:21:04;;;;;;;15.30;10.57;;;10.10;82.60;;;;;;4898575;29;20199;-89
2024/03/01 13:23:46;;;;;;;14.45;10.60;;;9.90;84.80;;;;;;4895644;29;20205;-91
2024/03/01 13:26:24;;;;;;;15.32;10.52;;;9.90;85.90;;;;;;4899712;29;20198;-90
2024/03/01 13:29:01;;;;;;;16.88;11.10;;;10.00;84.00;;;;;;4898563;29;20619;-90
2024/03/01 13:31:35;;;;;;;17.52;10.55;;;10.00;84.10;;;;;;4897613;29;20202;-90
2024/03/01 13:34:07;;;;;;;17.08;10.93;;;9.90;85.40;;;;;;4881715;29;20198;-91
2024/03/01 13:37:30;;;;;;;15.95;10.30;;;9.90;86.80;;;;;;4903856;29;20608;-91
2024/03/01 13:46:47;;;;;;;16.20;9.82;;;10.00;84.00;;;;;;4891273;29;20212;-91
2024/03/01 13:49:19;;;;;;;17.75;10.82;;;9.90;85.20;;;;;;4885239;29;20310;-91
2024/03/01 14:06:55;;;;;;;15.90;10.52;;;9.90;85.20;;;;;;4921320;29;20225;-92
2024/03/01 14:10:13;;;;;;;13.15;9.90;;;9.90;84.80;;;;;;4922286;29;20202;-87
2024/03/01 15:58:49;;;;;;;11.90;8.40;;;9.20;91.20;;;;;;5007724;23;20252;-86
2024/03/01 16:42:03;;;;;;;9.70;7.28;;;8.80;92.30;;;;;;4878938;29;20231;-89
2024/03/01 17:43:04;;;;;;;9.95;6.95;;;8.50;95.80;;;;;;5044053;23;20234;-89
2024/03/01 17:48:56;;;;;;;10.82;6.70;;;8.40;95.80;;;;;;4917210;29;20211;-88
2024/03/01 17:51:39;;;;;;;8.35;7.07;;;8.30;95.80;;;;;;4910591;29;20580;-88
2024/03/01 17:54:07;;;;;;;9.60;6.65;;;8.40;95.80;;;;;;4917561;29;20566;-88
2024/03/01 17:56:34;;;;;;;9.02;6.72;;;8.40;96.20;;;;;;4899947;29;20230;-89
2024/03/01 17:59:02;;;;;;;8.07;6.00;;;8.40;96.40;;;;;;4905736;29;20202;-88
2024/03/01 18:01:37;;;;;;;7.93;6.07;;;8.50;96.40;;;;;;4898953;29;20203;-88
2024/03/01 18:04:04;;;;;;;8.63;6.13;;;8.50;96.20;;;;;;4898762;29;20564;-88
2024/03/01 18:06:38;;;;;;;9.90;6.38;;;8.40;96.30;;;;;;4898394;29;20222;-87
2024/03/01 18:09:05;;;;;;;9.32;6.07;;;8.30;96.50;;;;;;4894356;29;20290;-90
2024/03/01 18:11:33;;;;;;;9.52;6.35;;;8.20;96.80;;;;;;4907614;29;20202;-90
2024/03/01 18:14:26;;;;;;;7.82;5.40;;;8.20;96.90;;;;;;4897269;29;20291;-91
2024/03/01 18:16:52;;;;;;;6.97;5.55;;;8.20;97.20;;;;;;4891010;29;20207;-91
2024/03/01 18:19:19;;;;;;;8.23;5.82;;;8.20;97.20;;;;;;4878785;29;20196;-90
2024/03/01 18:27:54;;;;;;;7.30;5.80;;;8.30;97.20;;;;;;4894252;29;20277;-93
2024/03/01 18:33:22;;;;;;;12.00;6.50;;;8.20;98.00;;;;;;4900029;29;20238;-94
2024/03/01 18:35:49;;;;;;;6.93;5.82;;;8.10;98.70;;;;;;4891457;29;20199;-88
2024/03/01 19:06:42;;;;;;;7.70;5.53;;;7.60;99.90;;;;;;4897567;29;20223;-89
2024/03/01 19:09:10;;;;;;;7.43;5.43;;;7.60;99.90;;;;;;4874830;29;20227;-92
2024/03/01 19:11:37;;;;;;;6.85;5.70;;;7.70;99.90;;;;;;4862796;29;20613;-92
2024/03/01 19:14:05;;;;;;;8.80;6.20;;;7.70;99.90;;;;;;4883612;29;20242;-92
2024/03/01 19:16:34;;;;;;;7.90;5.78;;;7.60;99.90;;;;;;4964543;23;20861;-91
2024/03/01 19:19:04;;;;;;;8.57;5.95;;;7.60;99.90;;;;;;4893315;29;20215;-92
2024/03/01 19:21:31;;;;;;;7.00;5.90;;;7.60;99.90;;;;;;4896318;29;20220;-92
2024/03/01 19:23:59;;;;;;;7.80;5.55;;;7.60;99.90;;;;;;4895484;29;20732;-92
2024/03/01 19:26:27;;;;;;;7.47;5.65;;;7.50;99.90;;;;;;4898390;29;20574;-92
2024/03/01 19:28:54;;;;;;;7.20;5.65;;;7.60;99.90;;;;;;4879188;29;20290;-88
2024/03/01 19:31:21;;;;;;;7.53;6.28;;;7.60;99.90;;;;;;4895844;29;20199;-88
2024/03/01 19:33:48;;;;;;;7.45;6.00;;;7.50;99.90;;;;;;4881840;29;20208;-88
2024/03/01 19:36:15;;;;;;;8.75;6.35;;;7.50;99.90;;;;;;4869748;29;20247;-89
2024/03/01 19:38:42;;;;;;;9.05;6.28;;;7.50;99.90;;;;;;4880594;29;20219;-90
2024/03/01 20:28:21;;;;;;;8.02;6.32;;;7.30;99.90;;;;;;4892767;29;20272;-92
2024/03/01 20:30:52;;;;;;;10.45;7.18;;;7.30;99.90;;;;;;4892382;29;20215;-92
2024/03/01 20:43:33;;;;;;;9.90;7.10;;;7.40;99.90;;;;;;4873573;29;20204;-90
2024/03/01 20:46:00;;;;;;;9.32;6.93;;;7.40;99.90;;;;;;4886577;29;20207;-91
2024/03/01 20:48:29;;;;;;;10.55;7.40;;;7.40;99.90;;;;;;4892204;29;20334;-91
2024/03/01 20:50:56;;;;;;;9.65;6.90;;;7.30;99.90;;;;;;4896801;29;20214;-89
2024/03/01 20:53:25;;;;;;;9.85;7.20;;;7.30;99.90;;;;;;4880028;29;20299;-90
2024/03/01 20:55:52;;;;;;;9.05;7.22;;;7.30;99.90;;;;;;4897960;29;20203;-90
2024/03/01 20:58:19;;;;;;;9.77;7.13;;;7.20;99.90;;;;;;4874706;29;20203;-90
2024/03/01 21:00:47;;;;;;;9.18;6.72;;;7.30;99.90;;;;;;4862921;29;20207;-87
2024/03/01 21:03:15;;;;;;;10.45;6.95;;;7.40;99.90;;;;;;4872061;29;20216;-87
2024/03/01 21:05:45;;;;;;;11.50;7.13;;;7.40;99.90;;;;;;4856243;29;20220;-87
2024/03/01 21:08:12;;;;;;;9.45;7.35;;;7.40;99.90;;;;;;4875519;29;20486;-87
2024/03/01 21:10:38;;;;;;;9.73;6.50;;;7.40;99.90;;;;;;4877747;29;20217;-87
2024/03/01 21:13:05;;;;;;;9.10;6.90;;;7.40;99.90;;;;;;4874168;29;20674;-88
2024/03/01 21:15:32;;;;;;;9.25;7.13;;;7.40;99.90;;;;;;4877852;29;20208;-88
2024/03/01 21:18:00;;;;;;;10.57;7.25;;;7.40;99.90;;;;;;4877005;29;20207;-89
2024/03/01 21:20:28;;;;;;;10.70;7.68;;;7.40;99.90;;;;;;4875048;29;20698;-89
2024/03/01 21:22:58;;;;;;;10.27;7.47;;;7.40;99.90;;;;;;4866321;29;20236;-90
2024/03/01 21:25:35;;;;;;;12.52;7.95;;;7.40;99.90;;;;;;4863221;29;20300;-90
2024/03/01 21:28:35;;;;;;;13.80;9.30;;;7.40;99.90;;;;;;4879920;29;20774;-90
2024/03/01 21:34:19;;;;;;;12.35;8.65;;;7.30;99.90;;;;;;4882600;29;20666;-91
2024/03/01 21:36:50;;;;;;;12.00;8.45;;;7.20;99.90;;;;;;4861388;29;20201;-91
2024/03/01 21:46:13;;;;;;;12.43;7.40;;;7.30;99.90;;;;;;4859687;29;20272;-90
2024/03/01 21:52:05;;;;;;;8.57;6.80;;;7.50;99.90;;;;;;4861568;29;20219;-90
2024/03/01 21:55:00;;;;;;;10.13;7.40;;;7.40;99.90;;;;;;4845491;29;20247;-89
2024/03/01 21:57:30;;;;;;;8.75;6.90;;;7.30;99.90;;;;;;4874428;29;20224;-90
2024/03/01 22:00:33;;;;;;;9.68;7.22;;;7.40;99.90;;;;;;4883441;29;20215;-90
2024/03/01 22:03:09;;;;;;;9.73;6.70;;;7.50;99.90;;;;;;4867077;29;20208;-90
2024/03/01 22:05:37;;;;;;;8.35;6.65;;;7.50;99.90;;;;;;4864606;29;20208;-91
2024/03/01 22:08:08;;;;;;;11.45;7.38;;;7.40;99.90;;;;;;4848311;29;20319;-91
2024/03/01 22:21:13;;;;;;;9.55;7.90;;;7.30;99.90;;;;;;4864208;29;20189;-90
2024/03/01 22:31:05;;;;;;;8.70;6.88;;;7.20;99.90;;;;;;4865889;29;20292;-90
2024/03/01 22:44:12;;;;;;;9.02;6.70;;;7.20;99.90;;;;;;4864760;29;20195;-90
